sensor_id;sensor_type;location;lat;lon;timestamp;pressure;altitude;pressure_sealevel;temperature;humidity
40574;BME280;26283;49.020;8.644;2024-01-30T00:00:21;100620.56;;;9.50;58.97
40574;BME280;26283;49.020;8.644;2024-01-30T00:02:46;100619.72;;;9.50;58.94
40574;BME280;26283;49.020;8.644;2024-01-30T00:05:12;100622.41;;;9.50;58.99
40574;BME280;26283;49.020;8.644;2024-01-30T00:07:37;100622.59;;;9.48;59.00
40574;BME280;26283;49.020;8.644;2024-01-30T00:10:03;100621.75;;;9.48;58.99
40574;BME280;26283;49.020;8.644;2024-01-30T00:12:28;100624.44;;;9.48;58.97
40574;BME280;26283;49.020;8.644;2024-01-30T00:14:53;100626.28;;;9.47;58.99
40574;BME280;26283;49.020;8.644;2024-01-30T00:17:19;100621.94;;;9.46;58.99
40574;BME280;26283;49.020;8.644;2024-01-30T00:19:46;100625.62;;;9.45;58.99
40574;BME280;26283;49.020;8.644;2024-01-30T00:22:11;100627.31;;;9.46;58.96
40574;BME280;26283;49.020;8.644;2024-01-30T00:24:36;100636.41;;;9.45;58.95
40574;BME280;26283;49.020;8.644;2024-01-30T00:27:02;100635.56;;;9.45;58.96
40574;BME280;26283;49.020;8.644;2024-01-30T00:29:27;100632.03;;;9.44;58.95
40574;BME280;26283;49.020;8.644;2024-01-30T00:31:56;100628.66;;;9.42;58.99
40574;BME280;26283;49.020;8.644;2024-01-30T00:34:21;100625.97;;;9.42;58.95
40574;BME280;26283;49.020;8.644;2024-01-30T00:36:47;100635.72;;;9.43;58.95
40574;BME280;26283;49.020;8.644;2024-01-30T00:39:12;100631.53;;;9.41;58.96
40574;BME280;26283;49.020;8.644;2024-01-30T00:41:37;100632.38;;;9.41;58.98
40574;BME280;26283;49.020;8.644;2024-01-30T00:44:03;100634.22;;;9.41;58.98
40574;BME280;26283;49.020;8.644;2024-01-30T00:46:28;100628.00;;;9.40;58.97
40574;BME280;26283;49.020;8.644;2024-01-30T00:48:54;100627.34;;;9.38;58.96
40574;BME280;26283;49.020;8.644;2024-01-30T00:51:19;100635.25;;;9.40;58.98
40574;BME280;26283;49.020;8.644;2024-01-30T00:53:45;100637.09;;;9.39;59.00
40574;BME280;26283;49.020;8.644;2024-01-30T00:56:10;100632.72;;;9.38;59.00
40574;BME280;26283;49.020;8.644;2024-01-30T00:58:35;100629.19;;;9.38;59.00
40574;BME280;26283;49.020;8.644;2024-01-30T01:01:01;100628.38;;;9.37;58.99
40574;BME280;26283;49.020;8.644;2024-01-30T01:03:26;100636.44;;;9.37;59.01
40574;BME280;26283;49.020;8.644;2024-01-30T01:05:51;100631.22;;;9.36;59.04
40574;BME280;26283;49.020;8.644;2024-01-30T01:08:17;100636.44;;;9.37;59.02
40574;BME280;26283;49.020;8.644;2024-01-30T01:10:43;100640.31;;;9.35;58.99
40574;BME280;26283;49.020;8.644;2024-01-30T01:13:08;100636.78;;;9.34;59.03
40574;BME280;26283;49.020;8.644;2024-01-30T01:15:33;100640.47;;;9.33;59.06
40574;BME280;26283;49.020;8.644;2024-01-30T01:17:59;100640.47;;;9.33;59.02
40574;BME280;26283;49.020;8.644;2024-01-30T01:20:24;100635.09;;;9.33;58.99
40574;BME280;26283;49.020;8.644;2024-01-30T01:22:49;100636.13;;;9.32;58.98
40574;BME280;26283;49.020;8.644;2024-01-30T01:25:15;100637.97;;;9.32;58.96
40574;BME280;26283;49.020;8.644;2024-01-30T01:27:40;100639.81;;;9.31;58.97
40574;BME280;26283;49.020;8.644;2024-01-30T01:30:09;100640.66;;;9.32;58.94
40574;BME280;26283;49.020;8.644;2024-01-30T01:32:35;100634.66;;;9.30;58.99
40574;BME280;26283;49.020;8.644;2024-01-30T01:35:00;100641.88;;;9.29;58.97
40574;BME280;26283;49.020;8.644;2024-01-30T01:37:25;100640.19;;;9.28;58.95
40574;BME280;26283;49.020;8.644;2024-01-30T01:39:52;100633.81;;;9.29;58.97
40574;BME280;26283;49.020;8.644;2024-01-30T01:42:17;100633.97;;;9.27;58.99
40574;BME280;26283;49.020;8.644;2024-01-30T01:44:42;100635.84;;;9.27;59.00
40574;BME280;26283;49.020;8.644;2024-01-30T01:47:08;100635.00;;;9.26;59.04
40574;BME280;26283;49.020;8.644;2024-01-30T01:49:33;100632.31;;;9.26;59.03
40574;BME280;26283;49.020;8.644;2024-01-30T01:51:59;100632.31;;;9.26;59.07
40574;BME280;26283;49.020;8.644;2024-01-30T01:54:26;100630.63;;;9.25;59.07
40574;BME280;26283;49.020;8.644;2024-01-30T01:56:53;100620.88;;;9.24;59.08
40574;BME280;26283;49.020;8.644;2024-01-30T01:59:20;100619.38;;;9.22;59.06
40574;BME280;26283;49.020;8.644;2024-01-30T02:01:46;100621.91;;;9.23;59.08
40574;BME280;26283;49.020;8.644;2024-01-30T02:04:14;100618.38;;;9.23;59.05
40574;BME280;26283;49.020;8.644;2024-01-30T02:06:39;100617.53;;;9.22;59.05
40574;BME280;26283;49.020;8.644;2024-01-30T02:09:05;100615.84;;;9.21;59.07
40574;BME280;26283;49.020;8.644;2024-01-30T02:11:31;100615.00;;;9.21;59.06
40574;BME280;26283;49.020;8.644;2024-01-30T02:13:57;100625.78;;;9.21;59.07
40574;BME280;26283;49.020;8.644;2024-01-30T02:16:22;100618.72;;;9.20;59.06
40574;BME280;26283;49.020;8.644;2024-01-30T02:18:47;100623.25;;;9.19;59.09
40574;BME280;26283;49.020;8.644;2024-01-30T02:21:16;100627.78;;;9.19;59.04
40574;BME280;26283;49.020;8.644;2024-01-30T02:23:43;100618.88;;;9.18;59.08
40574;BME280;26283;49.020;8.644;2024-01-30T02:26:09;100622.41;;;9.19;59.03
40574;BME280;26283;49.020;8.644;2024-01-30T02:28:35;100617.03;;;9.19;59.02
40574;BME280;26283;49.020;8.644;2024-01-30T02:31:00;100613.69;;;9.17;59.05
40574;BME280;26283;49.020;8.644;2024-01-30T02:33:25;100623.59;;;9.16;59.05
40574;BME280;26283;49.020;8.644;2024-01-30T02:35:51;100624.44;;;9.17;59.04
40574;BME280;26283;49.020;8.644;2024-01-30T02:38:16;100618.41;;;9.15;59.04
40574;BME280;26283;49.020;8.644;2024-01-30T02:40:41;100629.16;;;9.15;59.08
40574;BME280;26283;49.020;8.644;2024-01-30T02:43:07;100630.00;;;9.15;59.08
40574;BME280;26283;49.020;8.644;2024-01-30T02:45:32;100625.62;;;9.14;59.12
40574;BME280;26283;49.020;8.644;2024-01-30T02:47:58;100632.84;;;9.14;59.10
40574;BME280;26283;49.020;8.644;2024-01-30T02:50:23;100616.91;;;9.12;59.04
40574;BME280;26283;49.020;8.644;2024-01-30T02:52:48;100620.59;;;9.11;59.03
40574;BME280;26283;49.020;8.644;2024-01-30T02:55:14;100622.28;;;9.12;59.06
40574;BME280;26283;49.020;8.644;2024-01-30T02:57:42;100627.81;;;9.11;59.09
40574;BME280;26283;49.020;8.644;2024-01-30T03:00:08;100628.66;;;9.11;59.06
40574;BME280;26283;49.020;8.644;2024-01-30T03:02:35;100627.81;;;9.11;59.06
40574;BME280;26283;49.020;8.644;2024-01-30T03:05:00;100626.34;;;9.08;59.04
40574;BME280;26283;49.020;8.644;2024-01-30T03:07:26;100622.84;;;9.08;59.04
40574;BME280;26283;49.020;8.644;2024-01-30T03:09:51;100624.50;;;9.09;59.07
40574;BME280;26283;49.020;8.644;2024-01-30T03:12:17;100625.53;;;9.08;59.06
40574;BME280;26283;49.020;8.644;2024-01-30T03:14:42;100625.53;;;9.08;59.05
40574;BME280;26283;49.020;8.644;2024-01-30T03:17:07;100624.84;;;9.06;59.02
40574;BME280;26283;49.020;8.644;2024-01-30T03:19:33;100623.00;;;9.06;59.03
40574;BME280;26283;49.020;8.644;2024-01-30T03:21:58;100624.84;;;9.06;59.05
40574;BME280;26283;49.020;8.644;2024-01-30T03:24:24;100620.50;;;9.05;59.10
40574;BME280;26283;49.020;8.644;2024-01-30T03:26:49;100624.19;;;9.04;59.07
40574;BME280;26283;49.020;8.644;2024-01-30T03:29:15;100622.34;;;9.04;59.10
40574;BME280;26283;49.020;8.644;2024-01-30T03:31:40;100625.03;;;9.04;59.10
40574;BME280;26283;49.020;8.644;2024-01-30T03:34:06;100625.19;;;9.03;59.12
40574;BME280;26283;49.020;8.644;2024-01-30T03:36:31;100618.97;;;9.02;59.07
40574;BME280;26283;49.020;8.644;2024-01-30T03:38:59;100620.16;;;9.00;59.07
40574;BME280;26283;49.020;8.644;2024-01-30T03:41:24;100623.69;;;9.00;59.05
40574;BME280;26283;49.020;8.644;2024-01-30T03:43:50;100621.00;;;9.00;59.08
40574;BME280;26283;49.020;8.644;2024-01-30T03:46:15;100624.72;;;8.99;59.05
40574;BME280;26283;49.020;8.644;2024-01-30T03:48:41;100614.97;;;8.98;59.07
40574;BME280;26283;49.020;8.644;2024-01-30T03:51:06;100617.66;;;8.98;59.09
40574;BME280;26283;49.020;8.644;2024-01-30T03:53:31;100624.03;;;8.97;59.10
40574;BME280;26283;49.020;8.644;2024-01-30T03:55:57;100619.50;;;8.98;59.13
40574;BME280;26283;49.020;8.644;2024-01-30T03:58:22;100623.19;;;8.97;59.12
40574;BME280;26283;49.020;8.644;2024-01-30T04:00:48;100625.06;;;8.96;59.10
40574;BME280;26283;49.020;8.644;2024-01-30T04:03:16;100617.00;;;8.96;59.15
40574;BME280;26283;49.020;8.644;2024-01-30T04:05:42;100618.00;;;8.95;59.13
40574;BME280;26283;49.020;8.644;2024-01-30T04:08:07;100624.22;;;8.96;59.07
40574;BME280;26283;49.020;8.644;2024-01-30T04:10:33;100628.75;;;8.95;59.07
40574;BME280;26283;49.020;8.644;2024-01-30T04:12:59;100625.22;;;8.94;59.06
40574;BME280;26283;49.020;8.644;2024-01-30T04:15:25;100639.69;;;8.93;59.07
40574;BME280;26283;49.020;8.644;2024-01-30T04:17:50;100631.78;;;8.92;59.10
40574;BME280;26283;49.020;8.644;2024-01-30T04:20:16;100629.94;;;8.92;59.06
40574;BME280;26283;49.020;8.644;2024-01-30T04:22:46;100631.78;;;8.92;59.02
40574;BME280;26283;49.020;8.644;2024-01-30T04:25:14;100633.63;;;8.91;59.08
40574;BME280;26283;49.020;8.644;2024-01-30T04:27:39;100626.59;;;8.90;59.11
40574;BME280;26283;49.020;8.644;2024-01-30T04:30:05;100628.44;;;8.90;59.09
40574;BME280;26283;49.020;8.644;2024-01-30T04:32:31;100628.59;;;8.88;59.10
40574;BME280;26283;49.020;8.644;2024-01-30T04:34:57;100626.97;;;8.87;59.12
40574;BME280;26283;49.020;8.644;2024-01-30T04:37:23;100625.06;;;8.88;59.08
40574;BME280;26283;49.020;8.644;2024-01-30T04:39:48;100626.97;;;8.87;59.09
40574;BME280;26283;49.020;8.644;2024-01-30T04:42:14;100621.59;;;8.87;59.05
40574;BME280;26283;49.020;8.644;2024-01-30T04:44:39;100623.22;;;8.88;59.03
40574;BME280;26283;49.020;8.644;2024-01-30T04:47:04;100620.91;;;8.85;59.03
40574;BME280;26283;49.020;8.644;2024-01-30T04:49:31;100632.50;;;8.86;59.07
40574;BME280;26283;49.020;8.644;2024-01-30T04:51:57;100627.97;;;8.86;59.08
40574;BME280;26283;49.020;8.644;2024-01-30T04:54:23;100625.47;;;8.85;59.05
40574;BME280;26283;49.020;8.644;2024-01-30T04:56:48;100618.41;;;8.84;59.01
40574;BME280;26283;49.020;8.644;2024-01-30T04:59:13;100624.63;;;8.84;59.04
40574;BME280;26283;49.020;8.644;2024-01-30T05:01:39;100615.88;;;8.82;59.06
40574;BME280;26283;49.020;8.644;2024-01-30T05:04:07;100626.63;;;8.82;59.04
40574;BME280;26283;49.020;8.644;2024-01-30T05:06:33;100624.97;;;8.81;59.10
40574;BME280;26283;49.020;8.644;2024-01-30T05:08:58;100624.97;;;8.81;59.08
40574;BME280;26283;49.020;8.644;2024-01-30T05:11:23;100629.50;;;8.81;59.10
40574;BME280;26283;49.020;8.644;2024-01-30T05:13:49;100631.34;;;8.80;59.10
40574;BME280;26283;49.020;8.644;2024-01-30T05:16:14;100633.19;;;8.80;59.16
40574;BME280;26283;49.020;8.644;2024-01-30T05:18:39;100627.81;;;8.80;59.14
40574;BME280;26283;49.020;8.644;2024-01-30T05:21:05;100630.69;;;8.78;59.16
40574;BME280;26283;49.020;8.644;2024-01-30T05:23:31;100636.06;;;8.78;59.12
40574;BME280;26283;49.020;8.644;2024-01-30T05:25:56;100643.28;;;8.78;59.13
40574;BME280;26283;49.020;8.644;2024-01-30T05:28:22;100638.91;;;8.77;59.17
40574;BME280;26283;49.020;8.644;2024-01-30T05:30:47;100646.13;;;8.76;59.15
40574;BME280;26283;49.020;8.644;2024-01-30T05:33:12;100641.78;;;8.75;59.12
40574;BME280;26283;49.020;8.644;2024-01-30T05:35:38;100648.00;;;8.76;59.17
40574;BME280;26283;49.020;8.644;2024-01-30T05:38:04;100643.63;;;8.75;59.17
40574;BME280;26283;49.020;8.644;2024-01-30T05:40:36;100645.47;;;8.74;59.17
40574;BME280;26283;49.020;8.644;2024-01-30T05:43:02;100647.31;;;8.74;59.15
40574;BME280;26283;49.020;8.644;2024-01-30T05:45:28;100649.16;;;8.73;59.17
40574;BME280;26283;49.020;8.644;2024-01-30T05:47:53;100650.84;;;8.74;59.12
40574;BME280;26283;49.020;8.644;2024-01-30T05:50:19;100652.03;;;8.72;59.12
40574;BME280;26283;49.020;8.644;2024-01-30T05:52:45;100649.34;;;8.72;59.12
40574;BME280;26283;49.020;8.644;2024-01-30T05:55:11;100654.88;;;8.70;59.12
40574;BME280;26283;49.020;8.644;2024-01-30T05:57:37;100652.19;;;8.70;59.17
40574;BME280;26283;49.020;8.644;2024-01-30T06:00:04;100648.66;;;8.70;59.18
40574;BME280;26283;49.020;8.644;2024-01-30T06:02:30;100658.59;;;8.69;59.21
40574;BME280;26283;49.020;8.644;2024-01-30T06:04:56;100652.53;;;8.67;59.17
40574;BME280;26283;49.020;8.644;2024-01-30T06:07:21;100648.00;;;8.68;59.15
40574;BME280;26283;49.020;8.644;2024-01-30T06:09:47;100657.91;;;8.67;59.16
40574;BME280;26283;49.020;8.644;2024-01-30T06:12:12;100656.22;;;8.66;59.18
40574;BME280;26283;49.020;8.644;2024-01-30T06:14:38;100656.22;;;8.66;59.19
40574;BME280;26283;49.020;8.644;2024-01-30T06:17:03;100651.91;;;8.65;59.23
40574;BME280;26283;49.020;8.644;2024-01-30T06:19:30;100647.53;;;8.64;59.22
40574;BME280;26283;49.020;8.644;2024-01-30T06:21:55;100651.06;;;8.65;59.25
40574;BME280;26283;49.020;8.644;2024-01-30T06:24:20;100656.44;;;8.65;59.17
40574;BME280;26283;49.020;8.644;2024-01-30T06:26:46;100650.22;;;8.64;59.14
40574;BME280;26283;49.020;8.644;2024-01-30T06:29:11;100657.44;;;8.64;59.13
40574;BME280;26283;49.020;8.644;2024-01-30T06:31:40;100655.78;;;8.63;59.12
40574;BME280;26283;49.020;8.644;2024-01-30T06:34:07;100649.56;;;8.62;59.17
40574;BME280;26283;49.020;8.644;2024-01-30T06:36:32;100645.19;;;8.61;59.15
40574;BME280;26283;49.020;8.644;2024-01-30T06:38:57;100648.88;;;8.60;59.22
40574;BME280;26283;49.020;8.644;2024-01-30T06:41:22;100648.88;;;8.60;59.20
40574;BME280;26283;49.020;8.644;2024-01-30T06:43:49;100655.09;;;8.61;59.16
40574;BME280;26283;49.020;8.644;2024-01-30T06:46:14;100652.56;;;8.59;59.17
40574;BME280;26283;49.020;8.644;2024-01-30T06:48:40;100655.28;;;8.59;59.21
40574;BME280;26283;49.020;8.644;2024-01-30T06:51:06;100650.91;;;8.58;59.22
40574;BME280;26283;49.020;8.644;2024-01-30T06:53:31;100655.28;;;8.59;59.23
40574;BME280;26283;49.020;8.644;2024-01-30T06:55:57;100651.06;;;8.56;59.26
40574;BME280;26283;49.020;8.644;2024-01-30T06:58:22;100654.59;;;8.57;59.25
40574;BME280;26283;49.020;8.644;2024-01-30T07:00:47;100660.13;;;8.55;59.26
40574;BME280;26283;49.020;8.644;2024-01-30T07:03:13;100662.00;;;8.55;59.26
40574;BME280;26283;49.020;8.644;2024-01-30T07:05:38;100664.69;;;8.55;59.25
40574;BME280;26283;49.020;8.644;2024-01-30T07:08:04;100667.37;;;8.55;59.26
40574;BME280;26283;49.020;8.644;2024-01-30T07:10:29;100666.69;;;8.53;59.30
40574;BME280;26283;49.020;8.644;2024-01-30T07:12:56;100660.47;;;8.52;59.29
40574;BME280;26283;49.020;8.644;2024-01-30T07:15:22;100662.31;;;8.52;59.29
40574;BME280;26283;49.020;8.644;2024-01-30T07:17:47;100666.88;;;8.51;59.29
40574;BME280;26283;49.020;8.644;2024-01-30T07:20:12;100666.03;;;8.51;59.28
40574;BME280;26283;49.020;8.644;2024-01-30T07:22:39;100666.03;;;8.51;59.29
40574;BME280;26283;49.020;8.644;2024-01-30T07:25:05;100669.53;;;8.51;59.28
40574;BME280;26283;49.020;8.644;2024-01-30T07:27:31;100661.16;;;8.46;59.30
40574;BME280;26283;49.020;8.644;2024-01-30T07:29:56;100659.81;;;8.50;59.31
40574;BME280;26283;49.020;8.644;2024-01-30T07:32:21;100666.19;;;8.49;59.30
40574;BME280;26283;49.020;8.644;2024-01-30T07:34:47;100663.50;;;8.49;59.35
40574;BME280;26283;49.020;8.644;2024-01-30T07:37:12;100662.66;;;8.49;59.36
40574;BME280;26283;49.020;8.644;2024-01-30T07:39:40;100666.34;;;8.48;59.42
40574;BME280;26283;49.020;8.644;2024-01-30T07:42:06;100675.44;;;8.47;59.43
40574;BME280;26283;49.020;8.644;2024-01-30T07:44:31;100674.41;;;8.48;59.44
40574;BME280;26283;49.020;8.644;2024-01-30T07:46:57;100667.37;;;8.47;59.45
40574;BME280;26283;49.020;8.644;2024-01-30T07:49:22;100676.28;;;8.47;59.44
40574;BME280;26283;49.020;8.644;2024-01-30T07:51:47;100672.06;;;8.45;59.42
40574;BME280;26283;49.020;8.644;2024-01-30T07:54:13;100666.53;;;8.46;59.41
40574;BME280;26283;49.020;8.644;2024-01-30T07:56:38;100666.69;;;8.45;59.45
40574;BME280;26283;49.020;8.644;2024-01-30T07:59:04;100665.03;;;8.44;59.47
40574;BME280;26283;49.020;8.644;2024-01-30T08:01:29;100672.06;;;8.45;59.49
40574;BME280;26283;49.020;8.644;2024-01-30T08:03:54;100672.44;;;8.42;59.50
40574;BME280;26283;49.020;8.644;2024-01-30T08:06:20;100674.97;;;8.43;59.57
40574;BME280;26283;49.020;8.644;2024-01-30T08:08:45;100678.81;;;8.41;59.61
40574;BME280;26283;49.020;8.644;2024-01-30T08:11:13;100679.50;;;8.43;59.61
40574;BME280;26283;49.020;8.644;2024-01-30T08:13:38;100684.87;;;8.43;59.65
40574;BME280;26283;49.020;8.644;2024-01-30T08:16:04;100684.03;;;8.42;59.70
40574;BME280;26283;49.020;8.644;2024-01-30T08:18:30;100683.19;;;8.42;59.71
40574;BME280;26283;49.020;8.644;2024-01-30T08:20:55;100689.56;;;8.41;59.74
40574;BME280;26283;49.020;8.644;2024-01-30T08:23:20;100685.19;;;8.40;59.75
40574;BME280;26283;49.020;8.644;2024-01-30T08:25:46;100686.03;;;8.40;59.79
40574;BME280;26283;49.020;8.644;2024-01-30T08:28:11;100692.25;;;8.41;59.82
40574;BME280;26283;49.020;8.644;2024-01-30T08:30:37;100694.25;;;8.39;59.86
40574;BME280;26283;49.020;8.644;2024-01-30T08:33:04;100702.31;;;8.39;59.92
40574;BME280;26283;49.020;8.644;2024-01-30T08:35:29;100688.37;;;8.35;59.97
40574;BME280;26283;49.020;8.644;2024-01-30T08:37:58;100703.34;;;8.38;60.03
40574;BME280;26283;49.020;8.644;2024-01-30T08:40:24;100699.62;;;8.39;60.04
40574;BME280;26283;49.020;8.644;2024-01-30T08:42:49;100697.97;;;8.38;60.13
40574;BME280;26283;49.020;8.644;2024-01-30T08:45:14;100703.34;;;8.38;60.19
40574;BME280;26283;49.020;8.644;2024-01-30T08:47:40;100707.87;;;8.37;60.22
40574;BME280;26283;49.020;8.644;2024-01-30T08:50:06;100708.69;;;8.38;60.28
40574;BME280;26283;49.020;8.644;2024-01-30T08:52:32;100700.12;;;8.34;60.35
40574;BME280;26283;49.020;8.644;2024-01-30T08:54:59;100708.88;;;8.36;60.35
40574;BME280;26283;49.020;8.644;2024-01-30T08:57:24;100712.41;;;8.37;60.40
40574;BME280;26283;49.020;8.644;2024-01-30T08:59:53;100707.03;;;8.37;60.43
40574;BME280;26283;49.020;8.644;2024-01-30T09:02:19;100715.09;;;8.37;60.47
40574;BME280;26283;49.020;8.644;2024-01-30T09:04:44;100711.03;;;8.33;60.50
40574;BME280;26283;49.020;8.644;2024-01-30T09:07:10;100733.03;;;8.36;61.32
40574;BME280;26283;49.020;8.644;2024-01-30T09:09:37;100727.16;;;8.41;61.35
40574;BME280;26283;49.020;8.644;2024-01-30T09:12:02;100720.62;;;8.43;61.20
40574;BME280;26283;49.020;8.644;2024-01-30T09:14:32;100726.84;;;8.44;61.15
40574;BME280;26283;49.020;8.644;2024-01-30T09:16:57;100728.84;;;8.42;61.12
40574;BME280;26283;49.020;8.644;2024-01-30T09:19:23;100721.63;;;8.42;61.14
40574;BME280;26283;49.020;8.644;2024-01-30T09:21:48;100718.94;;;8.42;61.17
40574;BME280;26283;49.020;8.644;2024-01-30T09:24:13;100726.16;;;8.42;61.21
40574;BME280;26283;49.020;8.644;2024-01-30T09:26:39;100734.22;;;8.42;61.26
40574;BME280;26283;49.020;8.644;2024-01-30T09:29:04;100723.66;;;8.40;61.30
40574;BME280;26283;49.020;8.644;2024-01-30T09:31:30;100740.59;;;8.41;61.33
40574;BME280;26283;49.020;8.644;2024-01-30T09:33:55;100741.44;;;8.41;61.35
40574;BME280;26283;49.020;8.644;2024-01-30T09:36:21;100744.28;;;8.40;61.40
40574;BME280;26283;49.020;8.644;2024-01-30T09:38:47;100741.63;;;8.40;61.42
40574;BME280;26283;49.020;8.644;2024-01-30T09:41:13;100745.13;;;8.40;61.46
40574;BME280;26283;49.020;8.644;2024-01-30T09:43:39;100743.28;;;8.41;61.49
40574;BME280;26283;49.020;8.644;2024-01-30T09:46:05;100750.50;;;8.40;61.52
40574;BME280;26283;49.020;8.644;2024-01-30T09:48:32;100747.81;;;8.40;61.54
40574;BME280;26283;49.020;8.644;2024-01-30T09:50:58;100744.28;;;8.40;61.56
40574;BME280;26283;49.020;8.644;2024-01-30T09:53:24;100746.97;;;8.40;61.58
40574;BME280;26283;49.020;8.644;2024-01-30T09:55:50;100754.03;;;8.41;61.59
40574;BME280;26283;49.020;8.644;2024-01-30T09:58:16;100754.03;;;8.41;61.61
40574;BME280;26283;49.020;8.644;2024-01-30T10:00:42;100756.72;;;8.41;61.63
40574;BME280;26283;49.020;8.644;2024-01-30T10:03:08;100750.69;;;8.39;61.65
40574;BME280;26283;49.020;8.644;2024-01-30T10:05:35;100758.41;;;8.42;61.65
40574;BME280;26283;49.020;8.644;2024-01-30T10:08:05;100753.03;;;8.42;61.67
40574;BME280;26283;49.020;8.644;2024-01-30T10:10:31;100754.03;;;8.41;61.68
40574;BME280;26283;49.020;8.644;2024-01-30T10:12:56;100753.03;;;8.42;61.68
40574;BME280;26283;49.020;8.644;2024-01-30T10:15:22;100748.50;;;8.42;61.69
40574;BME280;26283;49.020;8.644;2024-01-30T10:17:47;100745.81;;;8.42;61.70
40574;BME280;26283;49.020;8.644;2024-01-30T10:20:13;100750.19;;;8.43;61.71
40574;BME280;26283;49.020;8.644;2024-01-30T10:22:40;100749.34;;;8.43;61.72
40574;BME280;26283;49.020;8.644;2024-01-30T10:25:07;100756.38;;;8.44;61.72
40574;BME280;26283;49.020;8.644;2024-01-30T10:27:33;100746.50;;;8.44;61.72
40574;BME280;26283;49.020;8.644;2024-01-30T10:29:58;100751.03;;;8.44;61.73
40574;BME280;26283;49.020;8.644;2024-01-30T10:32:24;100744.81;;;8.43;61.74
40574;BME280;26283;49.020;8.644;2024-01-30T10:34:50;100736.91;;;8.42;61.73
40574;BME280;26283;49.020;8.644;2024-01-30T10:37:16;100740.28;;;8.44;61.73
40574;BME280;26283;49.020;8.644;2024-01-30T10:39:45;100747.28;;;8.45;61.73
40574;BME280;26283;49.020;8.644;2024-01-30T10:42:15;100744.59;;;8.45;61.73
40574;BME280;26283;49.020;8.644;2024-01-30T10:44:57;100747.28;;;8.45;61.73
40574;BME280;26283;49.020;8.644;2024-01-30T10:47:27;100748.97;;;8.46;61.75
40574;BME280;26283;49.020;8.644;2024-01-30T10:49:54;100748.97;;;8.46;61.74
40574;BME280;26283;49.020;8.644;2024-01-30T10:52:20;100753.50;;;8.45;61.75
40574;BME280;26283;49.020;8.644;2024-01-30T10:54:46;100755.19;;;8.46;61.77
40574;BME280;26283;49.020;8.644;2024-01-30T10:57:12;100748.97;;;8.46;61.77
40574;BME280;26283;49.020;8.644;2024-01-30T10:59:42;100743.44;;;8.47;61.77
40574;BME280;26283;49.020;8.644;2024-01-30T11:02:09;100750.66;;;8.47;61.78
40574;BME280;26283;49.020;8.644;2024-01-30T11:04:40;100748.81;;;8.47;61.77
40574;BME280;26283;49.020;8.644;2024-01-30T11:07:23;100752.34;;;8.48;61.76
40574;BME280;26283;49.020;8.644;2024-01-30T11:10:00;100756.69;;;8.49;61.76
40574;BME280;26283;49.020;8.644;2024-01-30T11:12:27;100747.12;;;8.46;61.75
40574;BME280;26283;49.020;8.644;2024-01-30T11:15:09;100739.06;;;8.46;61.75
40574;BME280;26283;49.020;8.644;2024-01-30T11:17:45;100734.38;;;8.48;61.76
40574;BME280;26283;49.020;8.644;2024-01-30T11:22:45;100739.56;;;8.50;61.76
40574;BME280;26283;49.020;8.644;2024-01-30T11:25:15;100734.19;;;8.50;61.76
40574;BME280;26283;49.020;8.644;2024-01-30T11:27:42;100728.66;;;8.51;61.78
40574;BME280;26283;49.020;8.644;2024-01-30T11:30:08;100731.34;;;8.51;61.77
40574;BME280;26283;49.020;8.644;2024-01-30T11:32:34;100733.19;;;8.51;61.77
40574;BME280;26283;49.020;8.644;2024-01-30T11:34:59;100724.13;;;8.52;61.77
40574;BME280;26283;49.020;8.644;2024-01-30T11:37:25;100724.97;;;8.52;61.77
40574;BME280;26283;49.020;8.644;2024-01-30T11:39:53;100723.12;;;8.53;61.77
40574;BME280;26283;49.020;8.644;2024-01-30T11:42:19;100715.06;;;8.53;61.76
40574;BME280;26283;49.020;8.644;2024-01-30T11:44:48;100709.69;;;8.53;61.76
40574;BME280;26283;49.020;8.644;2024-01-30T11:47:14;100703.31;;;8.54;61.75
40574;BME280;26283;49.020;8.644;2024-01-30T11:49:40;100714.06;;;8.54;61.73
40574;BME280;26283;49.020;8.644;2024-01-30T11:52:05;100713.03;;;8.55;61.73
40574;BME280;26283;49.020;8.644;2024-01-30T11:54:31;100714.72;;;8.56;61.71
40574;BME280;26283;49.020;8.644;2024-01-30T11:56:57;100712.88;;;8.56;61.71
40574;BME280;26283;49.020;8.644;2024-01-30T11:59:22;100700.63;;;8.54;61.70
40574;BME280;26283;49.020;8.644;2024-01-30T12:01:48;100700.28;;;8.57;61.68
40574;BME280;26283;49.020;8.644;2024-01-30T12:04:13;100693.06;;;8.57;61.67
40574;BME280;26283;49.020;8.644;2024-01-30T12:06:39;100694.72;;;8.58;61.67
40574;BME280;26283;49.020;8.644;2024-01-30T12:09:05;100700.09;;;8.58;61.66
40574;BME280;26283;49.020;8.644;2024-01-30T12:11:33;100697.41;;;8.58;61.66
40574;BME280;26283;49.020;8.644;2024-01-30T12:13:58;100699.94;;;8.60;61.64
40574;BME280;26283;49.020;8.644;2024-01-30T12:16:24;100690.19;;;8.59;61.64
40574;BME280;26283;49.020;8.644;2024-01-30T12:18:49;100683.31;;;8.56;61.63
40574;BME280;26283;49.020;8.644;2024-01-30T12:21:24;100690.87;;;8.61;61.62
40574;BME280;26283;49.020;8.644;2024-01-30T12:23:49;100687.19;;;8.62;61.61
40574;BME280;26283;49.020;8.644;2024-01-30T12:26:15;100678.28;;;8.62;61.62
40574;BME280;26283;49.020;8.644;2024-01-30T12:28:50;100671.22;;;8.61;61.61
40574;BME280;26283;49.020;8.644;2024-01-30T12:31:15;100672.72;;;8.63;61.62
40574;BME280;26283;49.020;8.644;2024-01-30T12:33:41;100667.34;;;8.63;61.60
40574;BME280;26283;49.020;8.644;2024-01-30T12:36:07;100665.34;;;8.65;61.59
40574;BME280;26283;49.020;8.644;2024-01-30T12:38:32;100651.41;;;8.62;61.59
40574;BME280;26283;49.020;8.644;2024-01-30T12:40:58;100658.91;;;8.66;61.57
40574;BME280;26283;49.020;8.644;2024-01-30T12:43:24;100658.91;;;8.66;61.58
40574;BME280;26283;49.020;8.644;2024-01-30T12:45:50;100652.53;;;8.67;61.56
40574;BME280;26283;49.020;8.644;2024-01-30T12:48:15;100649.84;;;8.67;61.55
40574;BME280;26283;49.020;8.644;2024-01-30T12:50:41;100640.78;;;8.68;61.55
40574;BME280;26283;49.020;8.644;2024-01-30T12:53:06;100641.63;;;8.69;61.54
40574;BME280;26283;49.020;8.644;2024-01-30T12:55:32;100646.16;;;8.68;61.53